createdAt,value
2023-01-09T00:01:26.105Z,5.57
2023-01-09T00:03:54.229Z,6.30
2023-01-09T00:06:22.587Z,6.10
2023-01-09T00:08:50.724Z,6.00
2023-01-09T00:11:18.725Z,6.32
2023-01-09T00:13:48.243Z,5.55
2023-01-09T00:16:16.785Z,5.78
2023-01-09T00:18:44.810Z,6.25
2023-01-09T00:21:14.475Z,6.10
2023-01-09T00:23:42.562Z,6.25
2023-01-09T00:26:13.019Z,6.78
2023-01-09T00:28:41.577Z,6.30
2023-01-09T00:31:11.754Z,7.10
2023-01-09T00:33:42.815Z,6.60
2023-01-09T00:36:11.439Z,6.25
2023-01-09T00:38:39.919Z,6.47
2023-01-09T00:41:11.012Z,5.85
2023-01-09T00:43:45.153Z,6.53
2023-01-09T00:46:15.607Z,6.22
2023-01-09T00:48:46.872Z,6.68
2023-01-09T00:51:16.003Z,6.38
2023-01-09T00:53:44.560Z,6.15
2023-01-09T00:56:18.104Z,6.55
2023-01-09T00:58:46.860Z,5.78
2023-01-09T01:01:16.387Z,6.07
2023-01-09T01:03:44.329Z,6.40
2023-01-09T01:06:29.651Z,6.35
2023-01-09T01:08:57.635Z,5.82
2023-01-09T01:11:25.713Z,6.07
2023-01-09T01:13:53.581Z,5.55
2023-01-09T01:16:23.127Z,6.05
2023-01-09T01:18:51.621Z,6.30
2023-01-09T01:21:19.794Z,6.68
2023-01-09T01:23:47.872Z,6.78
2023-01-09T01:26:17.651Z,6.57
2023-01-09T01:28:45.785Z,6.75
2023-01-09T01:31:18.277Z,6.78
2023-01-09T01:33:47.616Z,7.38
2023-01-09T01:36:17.612Z,6.97
2023-01-09T01:38:47.084Z,7.10
2023-01-09T01:41:29.414Z,6.90
2023-01-09T01:43:59.793Z,7.97
2023-01-09T01:46:27.948Z,7.93
2023-01-09T01:49:01.046Z,7.25
2023-01-09T01:51:32.697Z,8.10
2023-01-09T01:54:07.916Z,7.45
2023-01-09T01:56:39.744Z,7.72
2023-01-09T01:59:12.991Z,8.50
2023-01-09T02:01:44.085Z,7.95
2023-01-09T02:04:14.069Z,8.75
2023-01-09T02:06:43.706Z,8.07
2023-01-09T02:09:15.470Z,8.70
2023-01-09T02:11:46.719Z,8.98
2023-01-09T02:14:15.339Z,8.73
2023-01-09T02:16:52.718Z,9.00
2023-01-09T02:19:50.924Z,8.55
2023-01-09T02:22:31.840Z,8.40
2023-01-09T02:25:27.193Z,9.48
2023-01-09T02:28:32.967Z,9.07
2023-01-09T02:31:09.283Z,8.35
2023-01-09T02:33:48.851Z,9.52
2023-01-09T02:36:24.740Z,9.25
2023-01-09T02:39:09.111Z,10.45
2023-01-09T02:41:44.393Z,9.95
2023-01-09T02:44:22.010Z,10.38
2023-01-09T02:47:02.104Z,10.57
2023-01-09T02:49:31.144Z,10.68
2023-01-09T02:52:08.205Z,10.95
2023-01-09T02:54:50.772Z,11.85
2023-01-09T02:57:39.803Z,11.18
2023-01-09T03:00:22.093Z,10.98
2023-01-09T03:02:54.512Z,11.57
2023-01-09T03:05:28.828Z,11.77
2023-01-09T03:08:02.654Z,11.77
2023-01-09T03:10:35.991Z,12.43
2023-01-09T03:13:04.660Z,12.57
2023-01-09T03:15:35.948Z,12.90
2023-01-09T03:18:07.089Z,13.30
2023-01-09T03:20:35.846Z,13.77
2023-01-09T03:23:06.335Z,12.65
2023-01-09T03:25:34.734Z,13.70
2023-01-09T03:28:06.995Z,13.15
2023-01-09T03:30:37.273Z,14.43
2023-01-09T03:33:06.576Z,14.25
2023-01-09T03:35:34.438Z,12.20
2023-01-09T03:38:02.388Z,14.73
2023-01-09T03:40:30.284Z,13.10
2023-01-09T03:42:58.188Z,13.60
2023-01-09T03:45:26.147Z,13.82
2023-01-09T03:47:54.154Z,13.65
2023-01-09T03:50:23.360Z,13.80
2023-01-09T03:52:51.341Z,14.07
2023-01-09T03:55:19.257Z,14.02
2023-01-09T03:57:47.042Z,13.25
2023-01-09T04:00:15.912Z,15.00
2023-01-09T04:02:43.886Z,14.48
2023-01-09T04:05:12.135Z,14.82
2023-01-09T04:07:41.707Z,14.75
2023-01-09T04:10:11.024Z,13.80
2023-01-09T04:12:39.122Z,14.82
2023-01-09T04:15:08.245Z,14.48
2023-01-09T04:17:36.178Z,14.57
2023-01-09T04:20:04.319Z,14.45
2023-01-09T04:22:32.625Z,15.88
2023-01-09T04:25:01.929Z,15.55
2023-01-09T04:27:29.793Z,15.32
2023-01-09T04:29:57.815Z,15.52
2023-01-09T04:32:27.626Z,15.43
2023-01-09T04:34:55.987Z,16.92
2023-01-09T04:37:25.416Z,16.27
2023-01-09T04:39:56.035Z,17.08
2023-01-09T04:42:25.670Z,17.02
2023-01-09T04:44:54.527Z,17.05
2023-01-09T04:47:23.838Z,16.52
2023-01-09T04:49:52.085Z,16.65
2023-01-09T04:52:20.149Z,16.23
2023-01-09T04:54:47.954Z,16.27
2023-01-09T04:57:15.915Z,16.23
2023-01-09T04:59:45.266Z,16.95
2023-01-09T05:02:13.439Z,15.98
2023-01-09T05:04:41.472Z,17.45
2023-01-09T05:07:09.421Z,15.63
2023-01-09T05:09:37.262Z,18.30
2023-01-09T05:12:05.570Z,17.08
2023-01-09T05:14:33.519Z,18.33
2023-01-09T05:17:02.738Z,17.95
2023-01-09T05:19:30.747Z,17.98
2023-01-09T05:21:58.629Z,17.20
2023-01-09T05:24:26.493Z,16.75
2023-01-09T05:26:54.470Z,17.70
2023-01-09T05:29:22.428Z,19.02
2023-01-09T05:31:50.272Z,17.05
2023-01-09T05:34:19.597Z,17.95
2023-01-09T05:36:47.619Z,18.40
2023-01-09T05:39:15.482Z,20.55
2023-01-09T05:41:43.401Z,18.75
2023-01-09T05:44:11.367Z,18.83
2023-01-09T05:46:39.283Z,17.30
2023-01-09T05:49:07.304Z,22.33
2023-01-09T05:51:36.660Z,19.65
2023-01-09T05:54:05.759Z,17.88
2023-01-09T05:56:33.730Z,19.38
2023-01-09T05:59:01.795Z,19.55
2023-01-09T06:01:30.213Z,18.65
2023-01-09T06:03:58.257Z,23.83
2023-01-09T06:06:26.312Z,19.15
2023-01-09T06:08:55.529Z,20.60
2023-01-09T06:11:23.487Z,19.00
2023-01-09T06:13:51.434Z,21.10
2023-01-09T06:16:19.539Z,19.42
2023-01-09T06:18:47.549Z,19.20
2023-01-09T06:21:15.496Z,20.15
2023-01-09T06:23:43.365Z,21.52
2023-01-09T06:26:12.666Z,20.55
2023-01-09T06:28:40.586Z,25.70
2023-01-09T06:31:08.489Z,20.27
2023-01-09T06:33:36.561Z,19.58
2023-01-09T06:36:04.895Z,19.35
2023-01-09T06:38:32.716Z,20.00
2023-01-09T06:41:00.687Z,21.52
2023-01-09T06:43:29.947Z,21.15
2023-01-09T06:45:57.835Z,19.98
2023-01-09T06:48:26.396Z,19.75
2023-01-09T06:50:54.510Z,20.80
2023-01-09T06:53:22.428Z,19.92
2023-01-09T06:55:50.586Z,18.80
2023-01-09T06:58:18.519Z,20.60
2023-01-09T07:00:49.374Z,21.08
2023-01-09T07:03:19.973Z,20.50
2023-01-09T07:05:48.198Z,18.80
2023-01-09T07:08:16.088Z,18.13
2023-01-09T07:10:44.673Z,19.08
2023-01-09T07:13:12.633Z,19.60
2023-01-09T07:15:40.605Z,18.85
2023-01-09T07:18:10.103Z,17.67
2023-01-09T07:20:40.874Z,18.73
2023-01-09T07:23:09.137Z,19.00
2023-01-09T07:25:37.383Z,19.55
2023-01-09T07:28:05.339Z,19.02
2023-01-09T07:30:33.856Z,19.02
2023-01-09T07:33:03.918Z,18.83
2023-01-09T07:35:33.580Z,18.17
2023-01-09T07:38:01.527Z,19.35
2023-01-09T07:40:29.579Z,18.80
2023-01-09T07:42:57.463Z,18.33
2023-01-09T07:45:25.455Z,16.95
2023-01-09T07:47:53.554Z,19.08
2023-01-09T07:50:21.518Z,18.10
2023-01-09T07:52:50.955Z,18.50
2023-01-09T07:55:18.952Z,19.42
2023-01-09T07:57:49.922Z,17.90
2023-01-09T08:00:18.687Z,19.05
2023-01-09T08:02:46.699Z,19.30
2023-01-09T08:05:15.950Z,18.33
2023-01-09T08:07:44.306Z,18.00
2023-01-09T08:10:14.276Z,18.15
2023-01-09T08:12:44.203Z,18.10
2023-01-09T08:15:12.885Z,16.27
2023-01-09T08:17:42.601Z,17.67
2023-01-09T08:20:12.334Z,16.98
2023-01-09T08:22:41.855Z,17.30
2023-01-09T08:25:12.428Z,17.23
2023-01-09T08:27:42.619Z,17.25
2023-01-09T08:30:11.784Z,17.35
2023-01-09T08:32:40.210Z,16.67
2023-01-09T08:35:09.247Z,16.63
2023-01-09T08:37:37.369Z,18.10
2023-01-09T08:40:05.704Z,18.33
2023-01-09T08:42:51.081Z,19.38
2023-01-09T08:45:37.775Z,18.08
2023-01-09T08:48:06.464Z,17.40
2023-01-09T08:50:34.339Z,17.10
2023-01-09T08:53:02.170Z,16.38
2023-01-09T08:55:30.167Z,18.00
2023-01-09T08:57:58.037Z,18.67
2023-01-09T09:00:27.447Z,16.73
2023-01-09T09:02:57.457Z,18.30
2023-01-09T09:05:26.569Z,20.23
2023-01-09T09:07:55.844Z,21.25
2023-01-09T09:10:25.128Z,20.23
2023-01-09T09:12:54.922Z,18.38
2023-01-09T09:15:24.611Z,18.27
2023-01-09T09:17:55.758Z,17.30
2023-01-09T09:20:25.011Z,17.55
2023-01-09T09:22:53.489Z,18.58
2023-01-09T09:25:22.504Z,19.60
2023-01-09T09:27:50.547Z,17.75
2023-01-09T09:30:20.648Z,17.05
2023-01-09T09:32:49.730Z,17.75
2023-01-09T09:35:20.994Z,17.33
2023-01-09T09:37:55.382Z,16.83
2023-01-09T09:40:36.617Z,18.38
2023-01-09T09:43:52.003Z,17.90
2023-01-09T09:46:30.196Z,17.67
2023-01-09T09:49:02.789Z,17.77
2023-01-09T09:51:45.604Z,20.08
2023-01-09T09:54:17.037Z,18.50
2023-01-09T09:56:50.728Z,18.70
2023-01-09T09:59:22.027Z,19.05
2023-01-09T10:01:56.476Z,19.83
2023-01-09T10:04:27.446Z,19.00
2023-01-09T10:07:01.336Z,17.90
2023-01-09T10:09:42.636Z,18.90
2023-01-09T10:12:25.483Z,18.80
2023-01-09T10:14:53.484Z,18.67
2023-01-09T10:17:53.274Z,18.52
2023-01-09T10:20:43.611Z,17.45
2023-01-09T10:23:28.740Z,17.23
2023-01-09T10:26:02.572Z,18.73
2023-01-09T10:28:51.467Z,17.85
2023-01-09T10:31:30.690Z,17.45
2023-01-09T10:34:10.366Z,16.38
2023-01-09T10:36:52.298Z,17.45
2023-01-09T10:39:25.897Z,17.33
2023-01-09T10:42:01.036Z,17.40
2023-01-09T10:44:35.719Z,20.00
2023-01-09T10:47:10.091Z,19.48
2023-01-09T10:49:39.585Z,19.30
2023-01-09T10:52:17.071Z,18.75
2023-01-09T10:54:53.366Z,19.67
2023-01-09T10:57:35.947Z,20.20
2023-01-09T11:00:04.887Z,20.77
2023-01-09T11:02:35.315Z,19.73
2023-01-09T11:05:03.346Z,20.08
2023-01-09T11:07:36.903Z,19.80
2023-01-09T11:10:08.743Z,22.08
2023-01-09T11:12:37.906Z,20.40
2023-01-09T11:15:29.068Z,20.48
2023-01-09T11:18:18.372Z,20.40
2023-01-09T11:20:46.462Z,19.63
2023-01-09T11:23:32.784Z,19.73
2023-01-09T11:26:04.479Z,17.45
2023-01-09T11:28:32.632Z,17.77
2023-01-09T11:31:02.630Z,16.98
2023-01-09T11:33:32.559Z,17.25
2023-01-09T11:36:08.117Z,16.50
2023-01-09T11:38:49.533Z,17.63
2023-01-09T11:41:22.201Z,16.60
2023-01-09T11:43:52.335Z,16.75
2023-01-09T11:46:39.663Z,17.17
2023-01-09T11:49:23.571Z,16.02
2023-01-09T11:52:16.470Z,17.50
2023-01-09T11:54:48.720Z,16.15
2023-01-09T11:57:18.571Z,17.90
2023-01-09T11:59:46.555Z,17.02
2023-01-09T12:02:43.455Z,17.50
2023-01-09T12:05:22.499Z,17.67
2023-01-09T12:11:39.527Z,16.20
2023-01-09T12:14:50.763Z,15.05
2023-01-09T12:17:32.123Z,14.60
2023-01-09T12:20:12.920Z,14.35
2023-01-09T12:22:48.953Z,15.57
2023-01-09T12:25:29.128Z,16.50
2023-01-09T12:28:10.666Z,15.30
2023-01-09T12:31:01.275Z,15.05
2023-01-09T12:33:42.851Z,15.35
2023-01-09T12:36:24.339Z,15.23
2023-01-09T12:38:56.522Z,16.48
2023-01-09T12:41:56.853Z,15.32
2023-01-09T12:44:52.564Z,15.55
2023-01-09T12:47:44.517Z,15.05
2023-01-09T12:50:45.704Z,15.38
2023-01-09T12:53:20.072Z,15.77
2023-01-09T12:55:52.527Z,15.25
2023-01-09T12:58:30.801Z,16.00
2023-01-09T13:01:01.308Z,18.48
2023-01-09T13:03:35.594Z,17.98
2023-01-09T13:06:09.121Z,18.40
2023-01-09T13:08:40.615Z,17.98
2023-01-09T13:11:20.463Z,17.70
2023-01-09T13:13:53.961Z,18.85
2023-01-09T13:16:28.117Z,19.13
2023-01-09T13:19:00.339Z,17.90
2023-01-09T13:21:30.247Z,19.33
2023-01-09T13:24:05.232Z,20.20
2023-01-09T13:26:38.690Z,19.58
2023-01-09T13:29:14.002Z,20.42
2023-01-09T13:31:59.825Z,19.75
2023-01-09T13:34:30.597Z,20.40
2023-01-09T13:37:00.716Z,20.67
2023-01-09T13:39:32.334Z,21.27
2023-01-09T13:42:19.917Z,22.30
2023-01-09T13:44:49.771Z,21.88
2023-01-09T13:47:23.427Z,22.85
2023-01-09T13:50:24.540Z,24.80
2023-01-09T13:52:54.439Z,24.05
2023-01-09T13:55:36.132Z,26.23
2023-01-09T13:58:23.765Z,28.02
2023-01-09T14:00:57.573Z,25.20
2023-01-09T14:03:30.029Z,27.88
2023-01-09T14:06:17.367Z,28.77
2023-01-09T14:08:49.196Z,29.05
2023-01-09T14:11:29.175Z,27.67
2023-01-09T14:14:05.060Z,27.60
2023-01-09T14:16:33.645Z,26.38
2023-01-09T14:19:18.131Z,26.42
2023-01-09T14:21:49.032Z,26.15
2023-01-09T14:24:26.076Z,25.90
2023-01-09T14:26:57.161Z,27.48
2023-01-09T14:29:47.664Z,26.60
2023-01-09T14:32:46.706Z,25.48
2023-01-09T14:35:19.011Z,26.02
2023-01-09T14:37:54.495Z,26.05
2023-01-09T14:40:25.099Z,24.63
2023-01-09T14:42:55.368Z,25.50
2023-01-09T14:45:25.383Z,24.80
2023-01-09T14:47:59.325Z,24.27
2023-01-09T14:50:34.706Z,23.48
2023-01-09T14:53:08.167Z,23.85
2023-01-09T14:55:52.310Z,23.63
2023-01-09T14:58:22.812Z,22.58
2023-01-09T15:00:56.798Z,22.17
2023-01-09T15:03:27.160Z,19.70
2023-01-09T15:05:55.215Z,17.65
2023-01-09T15:08:25.009Z,17.30
2023-01-09T15:10:55.813Z,15.05
2023-01-09T15:13:30.270Z,15.38
2023-01-09T15:15:59.498Z,16.25
2023-01-09T15:18:31.773Z,14.48
2023-01-09T15:21:03.084Z,15.43
2023-01-09T15:23:32.323Z,15.43
2023-01-09T15:26:14.470Z,14.98
2023-01-09T15:28:44.192Z,16.15
2023-01-09T15:31:16.342Z,15.55
2023-01-09T15:33:46.643Z,15.98
2023-01-09T15:36:18.655Z,15.43
2023-01-09T15:38:47.967Z,15.63
2023-01-09T15:41:40.741Z,16.23
2023-01-09T15:44:15.041Z,16.85
2023-01-09T15:46:46.277Z,16.63
2023-01-09T15:49:15.152Z,15.73
2023-01-09T15:51:44.881Z,18.15
2023-01-09T15:54:15.743Z,17.98
2023-01-09T15:56:46.459Z,18.27
2023-01-09T15:59:27.034Z,17.33
2023-01-09T16:02:14.538Z,19.73
2023-01-09T16:04:42.907Z,19.60
2023-01-09T16:07:16.266Z,19.70
2023-01-09T16:09:47.530Z,21.05
2023-01-09T16:12:23.517Z,20.52
2023-01-09T16:14:54.361Z,21.20
2023-01-09T16:17:27.406Z,21.98
2023-01-09T16:19:57.983Z,24.38
2023-01-09T16:22:28.266Z,23.52
2023-01-09T16:24:58.649Z,26.27
2023-01-09T16:27:30.806Z,24.23
2023-01-09T16:29:59.997Z,29.15
2023-01-09T16:32:30.804Z,25.73
2023-01-09T16:35:05.395Z,25.60
2023-01-09T16:37:33.820Z,21.48
2023-01-09T16:40:24.312Z,22.92
2023-01-09T16:43:01.709Z,21.92
2023-01-09T16:45:32.903Z,21.23
2023-01-09T16:48:01.480Z,19.55
2023-01-09T16:50:29.839Z,19.02
2023-01-09T16:52:58.579Z,20.95
2023-01-09T16:55:26.549Z,22.08
2023-01-09T16:57:56.234Z,23.17
2023-01-09T17:00:24.544Z,23.33
2023-01-09T17:02:52.341Z,22.05
2023-01-09T17:05:20.201Z,23.23
2023-01-09T17:07:48.147Z,22.05
2023-01-09T17:10:21.932Z,21.58
2023-01-09T17:12:50.374Z,23.05
2023-01-09T17:15:19.560Z,20.63
2023-01-09T17:17:47.345Z,18.02
2023-01-09T17:20:18.103Z,18.55
2023-01-09T17:22:46.021Z,19.25
2023-01-09T17:25:35.418Z,19.25
2023-01-09T17:28:21.806Z,17.30
2023-01-09T17:30:51.150Z,17.20
2023-01-09T17:33:20.221Z,17.13
2023-01-09T17:35:48.054Z,18.25
2023-01-09T17:38:16.876Z,17.95
2023-01-09T17:40:45.121Z,18.98
2023-01-09T17:43:13.257Z,19.25
2023-01-09T17:45:42.499Z,20.42
2023-01-09T17:48:16.365Z,21.42
2023-01-09T17:50:44.804Z,22.90
2023-01-09T17:53:12.853Z,21.35
2023-01-09T17:55:41.528Z,22.38
2023-01-09T17:58:19.857Z,23.23
2023-01-09T18:00:50.670Z,21.48
2023-01-09T18:03:23.146Z,23.23
2023-01-09T18:05:51.257Z,21.60
2023-01-09T18:08:19.783Z,21.27
2023-01-09T18:10:48.766Z,20.13
2023-01-09T18:13:16.970Z,21.25
2023-01-09T18:15:45.489Z,20.70
2023-01-09T18:18:14.209Z,20.80
2023-01-09T18:20:44.246Z,20.50
2023-01-09T18:23:13.128Z,18.42
2023-01-09T18:25:42.428Z,19.08
2023-01-09T18:28:11.454Z,17.90
2023-01-09T18:30:39.429Z,16.85
2023-01-09T18:33:07.350Z,16.45
2023-01-09T18:35:35.198Z,18.05
2023-01-09T18:38:04.507Z,17.80
2023-01-09T18:40:33.247Z,15.52
2023-01-09T18:43:04.943Z,16.17
2023-01-09T18:45:33.253Z,16.30
2023-01-09T18:48:01.181Z,16.15
2023-01-09T18:50:29.067Z,15.77
2023-01-09T18:52:57.021Z,16.67
2023-01-09T18:55:26.540Z,17.02
2023-01-09T18:57:56.729Z,18.25
2023-01-09T19:00:24.884Z,17.90
2023-01-09T19:02:52.944Z,18.85
2023-01-09T19:05:20.824Z,19.98
2023-01-09T19:07:48.728Z,19.73
2023-01-09T19:10:16.942Z,20.20
2023-01-09T19:12:46.183Z,21.58
2023-01-09T19:15:14.129Z,20.30
2023-01-09T19:17:42.287Z,21.45
2023-01-09T19:20:11.582Z,20.70
2023-01-09T19:22:39.944Z,20.90
2023-01-09T19:25:08.684Z,23.30
2023-01-09T19:27:36.543Z,21.88
2023-01-09T19:30:07.471Z,23.55
2023-01-09T19:32:35.374Z,24.10
2023-01-09T19:35:03.185Z,24.10
2023-01-09T19:37:31.144Z,24.17
2023-01-09T19:39:59.307Z,19.17
2023-01-09T19:42:27.147Z,19.75
2023-01-09T19:44:55.067Z,19.30
2023-01-09T19:47:24.271Z,20.88
2023-01-09T19:49:52.098Z,19.75
2023-01-09T19:52:20.338Z,19.17
2023-01-09T19:54:48.383Z,17.73
2023-01-09T19:57:16.209Z,17.35
2023-01-09T19:59:44.233Z,16.05
2023-01-09T20:02:13.251Z,14.10
2023-01-09T20:04:42.363Z,14.57
2023-01-09T20:07:10.365Z,14.15
2023-01-09T20:09:38.459Z,13.35
2023-01-09T20:12:06.899Z,14.70
2023-01-09T20:14:37.184Z,14.20
2023-01-09T20:17:05.333Z,13.57
2023-01-09T20:19:33.782Z,12.52
2023-01-09T20:22:03.482Z,11.52
2023-01-09T20:24:31.441Z,11.60
2023-01-09T20:26:59.266Z,10.43
2023-01-09T20:29:27.180Z,11.05
2023-01-09T20:31:55.183Z,11.85
2023-01-09T20:34:23.114Z,12.38
2023-01-09T20:36:51.101Z,11.18
2023-01-09T20:39:20.452Z,12.80
2023-01-09T20:41:48.383Z,9.40
2023-01-09T20:44:16.769Z,10.20
2023-01-09T20:46:48.125Z,10.85
2023-01-09T20:49:18.365Z,10.70
2023-01-09T20:51:47.698Z,11.00
